FIN5EM ESSA-EFHK
Flight info
| Callsign | FIN5EM |
|---|---|
| Flight time | 0h 36m |
| Altitude | 37000 |
| Route | TOVRI5C TOVRI N851 RIKUM DCT RIRIP Y364 LAKUT LAKUT9B |
| Aircraft | A310/H-SDFGHIM1RTUWXY/LB1 |
Departure
| Time | 2026-04-26 18:04 |
|---|---|
| Airport | Stockholm-Arlanda Airport (ESSA) |
Arrival
| Time | 2026-04-26 18:40 |
|---|---|
| Airport | Helsinki Vantaa Airport (EFHK) |
| Time | Latitude | Longitude | Altitude | Speed | Heading |
|---|---|---|---|---|---|
| 2026-04-26 17:29 | 59.64393 | 17.92743 | 143 ft | 0 kts | 45° |
| 2026-04-26 17:50 | 59.64384 | 17.92724 | 143 ft | 3 kts | 45° |
| 2026-04-26 17:50 | 59.64371 | 17.92698 | 143 ft | 3 kts | 45° |
| 2026-04-26 17:50 | 59.64358 | 17.92672 | 143 ft | 3 kts | 45° |
| 2026-04-26 17:51 | 59.64346 | 17.92648 | 143 ft | 2 kts | 45° |
| 2026-04-26 17:51 | 59.64334 | 17.92625 | 143 ft | 2 kts | 45° |
| 2026-04-26 17:51 | 59.64323 | 17.92602 | 143 ft | 2 kts | 45° |
| 2026-04-26 17:51 | 59.64311 | 17.92579 | 143 ft | 2 kts | 45° |
| 2026-04-26 17:52 | 59.64303 | 17.92562 | 143 ft | 3 kts | 50° |
| 2026-04-26 17:52 | 59.64294 | 17.92531 | 143 ft | 3 kts | 82° |
| 2026-04-26 17:52 | 59.64295 | 17.92497 | 143 ft | 2 kts | 108° |
| 2026-04-26 17:52 | 59.64299 | 17.92472 | 143 ft | 0 kts | 126° |
| 2026-04-26 17:54 | 59.64257 | 17.92492 | 143 ft | 5 kts | 199° |
| 2026-04-26 17:54 | 59.64232 | 17.92443 | 143 ft | 8 kts | 249° |
| 2026-04-26 17:54 | 59.64240 | 17.92342 | 143 ft | 12 kts | 294° |
| 2026-04-26 17:54 | 59.64298 | 17.92110 | 144 ft | 25 kts | 292° |
| 2026-04-26 17:55 | 59.64298 | 17.91901 | 144 ft | 14 kts | 208° |
| 2026-04-26 17:55 | 59.64198 | 17.91864 | 144 ft | 15 kts | 189° |
| 2026-04-26 17:55 | 59.64094 | 17.91826 | 144 ft | 16 kts | 192° |
| 2026-04-26 17:55 | 59.63984 | 17.91791 | 144 ft | 16 kts | 187° |
| 2026-04-26 17:56 | 59.63892 | 17.91748 | 144 ft | 9 kts | 198° |
| 2026-04-26 17:56 | 59.63875 | 17.91737 | 144 ft | 0 kts | 199° |
| 2026-04-26 17:57 | 59.63859 | 17.91723 | 144 ft | 5 kts | 206° |
| 2026-04-26 17:57 | 59.63830 | 17.91687 | 144 ft | 5 kts | 214° |
| 2026-04-26 17:58 | 59.63824 | 17.91679 | 144 ft | 0 kts | 215° |
| 2026-04-26 17:59 | 59.63803 | 17.91646 | 117 ft | 11 kts | 218° |
| 2026-04-26 17:59 | 59.63781 | 17.91609 | 144 ft | 0 kts | 220° |
| 2026-04-26 18:00 | 59.63780 | 17.91609 | 144 ft | 0 kts | 220° |
| 2026-04-26 18:01 | 59.63775 | 17.91601 | 144 ft | 7 kts | 220° |
| 2026-04-26 18:01 | 59.63730 | 17.91479 | 147 ft | 9 kts | 259° |
| 2026-04-26 18:01 | 59.63737 | 17.91408 | 151 ft | 1 kts | 287° |
| 2026-04-26 18:01 | 59.63751 | 17.91380 | 152 ft | 4 kts | 316° |
| 2026-04-26 18:02 | 59.63793 | 17.91340 | 151 ft | 11 kts | 0° |
| 2026-04-26 18:02 | 59.63800 | 17.91342 | 151 ft | 0 kts | 8° |
| 2026-04-26 18:02 | 59.63804 | 17.91344 | 151 ft | 3 kts | 8° |
| 2026-04-26 18:02 | 59.63819 | 17.91348 | 151 ft | 4 kts | 9° |
| 2026-04-26 18:03 | 59.63831 | 17.91352 | 151 ft | 3 kts | 9° |
| 2026-04-26 18:03 | 59.63845 | 17.91357 | 150 ft | 1 kts | 10° |
| 2026-04-26 18:03 | 59.63870 | 17.91366 | 150 ft | 8 kts | 10° |
| 2026-04-26 18:03 | 59.64118 | 17.91457 | 147 ft | 78 kts | 10° |
| 2026-04-26 18:04 | 59.64936 | 17.91753 | 150 ft | 158 kts | 11° |
| 2026-04-26 18:04 | 59.66194 | 17.92217 | 552 ft | 196 kts | 6° |
| 2026-04-26 18:04 | 59.67469 | 17.92768 | 2099 ft | 187 kts | 7° |
| 2026-04-26 18:05 | 59.70060 | 17.93851 | 4686 ft | 196 kts | 7° |
| 2026-04-26 18:05 | 59.71416 | 17.94423 | 4981 ft | 201 kts | 7° |
| 2026-04-26 18:05 | 59.72760 | 17.95006 | 4977 ft | 194 kts | 11° |
| 2026-04-26 18:05 | 59.73899 | 17.96470 | 4977 ft | 205 kts | 48° |
| 2026-04-26 18:06 | 59.74355 | 17.99198 | 5009 ft | 217 kts | 78° |
| 2026-04-26 18:06 | 59.74438 | 18.02249 | 5028 ft | 228 kts | 81° |
| 2026-04-26 18:06 | 59.74521 | 18.05402 | 5010 ft | 228 kts | 80° |
| 2026-04-26 18:06 | 59.74642 | 18.08501 | 5016 ft | 229 kts | 78° |
| 2026-04-26 18:07 | 59.74826 | 18.11612 | 5016 ft | 226 kts | 75° |
| 2026-04-26 18:07 | 59.75069 | 18.14708 | 5032 ft | 231 kts | 81° |
| 2026-04-26 18:07 | 59.75061 | 18.18009 | 5831 ft | 246 kts | 85° |
| 2026-04-26 18:07 | 59.75034 | 18.20322 | 6832 ft | 251 kts | 85° |
| 2026-04-26 18:08 | 59.74986 | 18.25031 | 8705 ft | 266 kts | 85° |
| 2026-04-26 18:08 | 59.74966 | 18.28812 | 10007 ft | 282 kts | 84° |
| 2026-04-26 18:08 | 59.74976 | 18.32796 | 11154 ft | 294 kts | 78° |
| 2026-04-26 18:08 | 59.75468 | 18.36704 | 12458 ft | 294 kts | 62° |
| 2026-04-26 18:09 | 59.76199 | 18.40526 | 13792 ft | 302 kts | 59° |
| 2026-04-26 18:09 | 59.76990 | 18.44502 | 14732 ft | 317 kts | 59° |
| 2026-04-26 18:09 | 59.77828 | 18.48654 | 15686 ft | 331 kts | 58° |
| 2026-04-26 18:09 | 59.78683 | 18.52899 | 16713 ft | 341 kts | 58° |
| 2026-04-26 18:10 | 59.79569 | 18.57375 | 17387 ft | 350 kts | 58° |
| 2026-04-26 18:10 | 59.80482 | 18.61922 | 18127 ft | 360 kts | 58° |
| 2026-04-26 18:10 | 59.81428 | 18.66624 | 18960 ft | 372 kts | 58° |
| 2026-04-26 18:10 | 59.82396 | 18.71455 | 19756 ft | 381 kts | 57° |
| 2026-04-26 18:11 | 59.83415 | 18.76399 | 20442 ft | 393 kts | 57° |
| 2026-04-26 18:11 | 59.84480 | 18.81537 | 20970 ft | 410 kts | 58° |
| 2026-04-26 18:11 | 59.85560 | 18.86867 | 21620 ft | 421 kts | 58° |
| 2026-04-26 18:11 | 59.86686 | 18.92338 | 22093 ft | 435 kts | 58° |
| 2026-04-26 18:12 | 59.87843 | 18.98016 | 22536 ft | 449 kts | 58° |
| 2026-04-26 18:12 | 59.89012 | 19.03770 | 23173 ft | 458 kts | 58° |
| 2026-04-26 18:12 | 59.90210 | 19.09692 | 23866 ft | 464 kts | 58° |
| 2026-04-26 18:12 | 59.91420 | 19.15698 | 24516 ft | 469 kts | 58° |
| 2026-04-26 18:13 | 59.92639 | 19.21765 | 25167 ft | 473 kts | 58° |
| 2026-04-26 18:13 | 59.93864 | 19.27879 | 25876 ft | 476 kts | 58° |
| 2026-04-26 18:13 | 59.95083 | 19.34000 | 26790 ft | 474 kts | 58° |
| 2026-04-26 18:13 | 59.95881 | 19.38047 | 27374 ft | 473 kts | 58° |
| 2026-04-26 18:14 | 59.97301 | 19.46495 | 27977 ft | 494 kts | 65° |
| 2026-04-26 18:14 | 59.98100 | 19.53241 | 28421 ft | 504 kts | 68° |
| 2026-04-26 18:14 | 59.98850 | 19.60131 | 28843 ft | 510 kts | 68° |
| 2026-04-26 18:14 | 59.99612 | 19.66913 | 28988 ft | 507 kts | 67° |
| 2026-04-26 18:15 | 60.00416 | 19.73770 | 29036 ft | 505 kts | 66° |
| 2026-04-26 18:15 | 60.02055 | 19.87398 | 29054 ft | 504 kts | 66° |
| 2026-04-26 18:16 | 60.03670 | 20.01066 | 29052 ft | 504 kts | 66° |
| 2026-04-26 18:16 | 60.06074 | 20.21576 | 29054 ft | 506 kts | 66° |
| 2026-04-26 18:17 | 60.07658 | 20.35187 | 29054 ft | 506 kts | 66° |
| 2026-04-26 18:17 | 60.09232 | 20.48909 | 29040 ft | 506 kts | 66° |
| 2026-04-26 18:18 | 60.10791 | 20.62644 | 29027 ft | 506 kts | 66° |
| 2026-04-26 18:18 | 60.12338 | 20.76399 | 29021 ft | 506 kts | 67° |
| 2026-04-26 18:19 | 60.13874 | 20.90162 | 29018 ft | 506 kts | 67° |
| 2026-04-26 18:19 | 60.15383 | 21.03845 | 29012 ft | 506 kts | 67° |
| 2026-04-26 18:20 | 60.16888 | 21.17619 | 29006 ft | 505 kts | 67° |
| 2026-04-26 18:20 | 60.17879 | 21.26856 | 29002 ft | 505 kts | 67° |
| 2026-04-26 18:21 | 60.19851 | 21.45218 | 28996 ft | 505 kts | 68° |
| 2026-04-26 18:21 | 60.21242 | 21.59079 | 28993 ft | 505 kts | 68° |
| 2026-04-26 18:22 | 60.22693 | 21.72776 | 28988 ft | 504 kts | 68° |
| 2026-04-26 18:22 | 60.24126 | 21.86602 | 28973 ft | 505 kts | 68° |
| 2026-04-26 18:23 | 60.25552 | 22.00341 | 28076 ft | 497 kts | 68° |
| 2026-04-26 18:23 | 60.26244 | 22.07158 | 26716 ft | 498 kts | 69° |
| 2026-04-26 18:23 | 60.26938 | 22.13983 | 25446 ft | 496 kts | 69° |
| 2026-04-26 18:24 | 60.27629 | 22.20759 | 24558 ft | 489 kts | 69° |
| 2026-04-26 18:24 | 60.28298 | 22.27390 | 23907 ft | 478 kts | 69° |
| 2026-04-26 18:24 | 60.28955 | 22.33935 | 23289 ft | 476 kts | 69° |
| 2026-04-26 18:24 | 60.29604 | 22.40354 | 22739 ft | 472 kts | 69° |
| 2026-04-26 18:25 | 60.30276 | 22.46792 | 22108 ft | 467 kts | 69° |
| 2026-04-26 18:25 | 60.30936 | 22.53158 | 21509 ft | 461 kts | 70° |
| 2026-04-26 18:25 | 60.31592 | 22.59451 | 20920 ft | 456 kts | 70° |
| 2026-04-26 18:25 | 60.32232 | 22.65688 | 20340 ft | 451 kts | 71° |
| 2026-04-26 18:26 | 60.32785 | 22.71895 | 19772 ft | 451 kts | 77° |
| 2026-04-26 18:26 | 60.32762 | 22.78262 | 19129 ft | 455 kts | 89° |
| 2026-04-26 18:26 | 60.32384 | 22.84512 | 18765 ft | 442 kts | 93° |
| 2026-04-26 18:26 | 60.31955 | 22.90654 | 18208 ft | 441 kts | 93° |
| 2026-04-26 18:27 | 60.31564 | 22.96741 | 17409 ft | 434 kts | 92° |
| 2026-04-26 18:27 | 60.31194 | 23.02743 | 16650 ft | 428 kts | 92° |
| 2026-04-26 18:27 | 60.30830 | 23.08598 | 15976 ft | 423 kts | 92° |
| 2026-04-26 18:27 | 60.30482 | 23.14440 | 15314 ft | 418 kts | 92° |
| 2026-04-26 18:28 | 60.30128 | 23.20213 | 14665 ft | 413 kts | 91° |
| 2026-04-26 18:28 | 60.29770 | 23.25934 | 14027 ft | 409 kts | 91° |
| 2026-04-26 18:28 | 60.29421 | 23.31582 | 13355 ft | 404 kts | 91° |
| 2026-04-26 18:28 | 60.29079 | 23.37176 | 12649 ft | 400 kts | 91° |
| 2026-04-26 18:29 | 60.28730 | 23.42712 | 11965 ft | 396 kts | 92° |
| 2026-04-26 18:29 | 60.28384 | 23.48198 | 11289 ft | 392 kts | 91° |
| 2026-04-26 18:29 | 60.28042 | 23.53628 | 10629 ft | 389 kts | 92° |
| 2026-04-26 18:29 | 60.27696 | 23.58996 | 10190 ft | 384 kts | 91° |
| 2026-04-26 18:30 | 60.27355 | 23.64323 | 10036 ft | 383 kts | 92° |
| 2026-04-26 18:30 | 60.27016 | 23.69558 | 9934 ft | 381 kts | 91° |
| 2026-04-26 18:30 | 60.26673 | 23.74855 | 9927 ft | 384 kts | 92° |
| 2026-04-26 18:30 | 60.26321 | 23.80199 | 9914 ft | 382 kts | 92° |
| 2026-04-26 18:31 | 60.25976 | 23.85391 | 9906 ft | 371 kts | 92° |
| 2026-04-26 18:31 | 60.25638 | 23.90522 | 9906 ft | 369 kts | 92° |
| 2026-04-26 18:31 | 60.25298 | 23.95642 | 9900 ft | 369 kts | 92° |
| 2026-04-26 18:31 | 60.24948 | 24.00745 | 9897 ft | 368 kts | 92° |
| 2026-04-26 18:32 | 60.24612 | 24.05852 | 9896 ft | 368 kts | 92° |
| 2026-04-26 18:32 | 60.24259 | 24.10950 | 9893 ft | 368 kts | 92° |
| 2026-04-26 18:32 | 60.23918 | 24.16029 | 9761 ft | 362 kts | 92° |
| 2026-04-26 18:32 | 60.23576 | 24.20926 | 9166 ft | 350 kts | 92° |
| 2026-04-26 18:33 | 60.23251 | 24.25591 | 9062 ft | 326 kts | 91° |
| 2026-04-26 18:33 | 60.22941 | 24.29983 | 8838 ft | 308 kts | 91° |
| 2026-04-26 18:33 | 60.22643 | 24.34112 | 8755 ft | 289 kts | 91° |
| 2026-04-26 18:33 | 60.22352 | 24.38075 | 8289 ft | 285 kts | 91° |
| 2026-04-26 18:34 | 60.22063 | 24.42008 | 7791 ft | 283 kts | 91° |
| 2026-04-26 18:34 | 60.21776 | 24.45921 | 7287 ft | 282 kts | 91° |
| 2026-04-26 18:34 | 60.21489 | 24.49810 | 6796 ft | 281 kts | 91° |
| 2026-04-26 18:34 | 60.21203 | 24.53561 | 6596 ft | 260 kts | 91° |
| 2026-04-26 18:35 | 60.20945 | 24.56979 | 6152 ft | 247 kts | 90° |
| 2026-04-26 18:35 | 60.20699 | 24.60373 | 5497 ft | 243 kts | 90° |
| 2026-04-26 18:35 | 60.20457 | 24.63709 | 4711 ft | 238 kts | 90° |
| 2026-04-26 18:35 | 60.20351 | 24.66824 | 4293 ft | 207 kts | 66° |
| 2026-04-26 18:36 | 60.21059 | 24.68927 | 3824 ft | 169 kts | 29° |
| 2026-04-26 18:36 | 60.21962 | 24.70347 | 3197 ft | 164 kts | 30° |
| 2026-04-26 18:36 | 60.22813 | 24.71771 | 2827 ft | 150 kts | 35° |
| 2026-04-26 18:36 | 60.23490 | 24.73227 | 2515 ft | 137 kts | 37° |
| 2026-04-26 18:37 | 60.24108 | 24.74588 | 2170 ft | 124 kts | 36° |
| 2026-04-26 18:37 | 60.24703 | 24.75882 | 2164 ft | 134 kts | 36° |
| 2026-04-26 18:37 | 60.25334 | 24.77273 | 2065 ft | 138 kts | 37° |
| 2026-04-26 18:37 | 60.25985 | 24.78703 | 1702 ft | 134 kts | 37° |
| 2026-04-26 18:38 | 60.26622 | 24.80098 | 1509 ft | 137 kts | 37° |
| 2026-04-26 18:38 | 60.27266 | 24.81511 | 1329 ft | 141 kts | 38° |
| 2026-04-26 18:38 | 60.27931 | 24.82978 | 1127 ft | 140 kts | 39° |
| 2026-04-26 18:38 | 60.28570 | 24.84383 | 935 ft | 134 kts | 39° |
| 2026-04-26 18:39 | 60.29204 | 24.85777 | 766 ft | 135 kts | 39° |
| 2026-04-26 18:39 | 60.29843 | 24.87184 | 584 ft | 137 kts | 40° |
| 2026-04-26 18:39 | 60.30493 | 24.88599 | 414 ft | 138 kts | 40° |
| 2026-04-26 18:39 | 60.31141 | 24.90033 | 231 ft | 137 kts | 39° |
| 2026-04-26 18:40 | 60.31764 | 24.91412 | 162 ft | 117 kts | 44° |
| 2026-04-26 18:40 | 60.32192 | 24.92366 | 173 ft | 68 kts | 45° |
| 2026-04-26 18:40 | 60.32399 | 24.92870 | 176 ft | 31 kts | 63° |
| 2026-04-26 18:40 | 60.32466 | 24.93270 | 181 ft | 31 kts | 72° |
| 2026-04-26 18:41 | 60.32494 | 24.93524 | 182 ft | 19 kts | 81° |
| 2026-04-26 18:41 | 60.32527 | 24.93801 | 183 ft | 21 kts | 76° |
| 2026-04-26 18:41 | 60.32604 | 24.94050 | 190 ft | 20 kts | 49° |
| 2026-04-26 18:41 | 60.32694 | 24.94254 | 190 ft | 19 kts | 47° |
| 2026-04-26 18:42 | 60.32804 | 24.94493 | 194 ft | 28 kts | 49° |
| 2026-04-26 18:42 | 60.32920 | 24.94781 | 199 ft | 20 kts | 67° |
| 2026-04-26 18:42 | 60.32886 | 24.94915 | 193 ft | 17 kts | 145° |
| 2026-04-26 18:42 | 60.32686 | 24.95059 | 182 ft | 28 kts | 163° |
| 2026-04-26 18:43 | 60.32491 | 24.95178 | 176 ft | 31 kts | 163° |
| 2026-04-26 18:43 | 60.32293 | 24.95354 | 171 ft | 32 kts | 140° |
| 2026-04-26 18:43 | 60.32184 | 24.95554 | 169 ft | 21 kts | 136° |
| 2026-04-26 18:43 | 60.32074 | 24.95760 | 169 ft | 22 kts | 137° |
| 2026-04-26 18:44 | 60.31998 | 24.95899 | 169 ft | 23 kts | 137° |
| 2026-04-26 18:44 | 60.31881 | 24.96121 | 170 ft | 23 kts | 131° |
| 2026-04-26 18:44 | 60.31851 | 24.96234 | 170 ft | 1 kts | 132° |
| 2026-04-26 18:44 | 60.31832 | 24.96237 | 170 ft | 7 kts | 192° |
| 2026-04-26 18:45 | 60.31783 | 24.96218 | 170 ft | 4 kts | 214° |
| 2026-04-26 18:45 | 60.31767 | 24.96137 | 170 ft | 5 kts | 237° |
| 2026-04-26 18:45 | 60.31725 | 24.96124 | 170 ft | 3 kts | 155° |